createdAt,value
2018-11-23T00:00:43.049Z,2.01
2018-11-23T00:01:51.675Z,2.03
2018-11-23T00:03:03.249Z,2.03
2018-11-23T00:04:13.116Z,2.02
2018-11-23T00:05:21.756Z,2.02
2018-11-23T00:06:33.051Z,2.01
2018-11-23T00:07:40.471Z,2.01
2018-11-23T00:08:48.660Z,2.01
2018-11-23T00:09:58.639Z,2.02
2018-11-23T00:11:05.686Z,2.03
2018-11-23T00:12:14.742Z,2.03
2018-11-23T00:13:22.963Z,2.02
2018-11-23T00:14:29.715Z,2.02
2018-11-23T00:15:39.437Z,2.01
2018-11-23T00:16:51.086Z,2.02
2018-11-23T00:17:59.383Z,2.01
2018-11-23T00:19:06.146Z,2.02
2018-11-23T00:20:16.307Z,1.99
2018-11-23T00:21:25.341Z,2.00
2018-11-23T00:22:32.420Z,1.99
2018-11-23T00:23:39.490Z,2.00
2018-11-23T00:24:48.472Z,2.00
2018-11-23T00:25:56.355Z,2.00
2018-11-23T00:27:05.373Z,2.01
2018-11-23T00:28:14.114Z,1.99
2018-11-23T00:29:22.132Z,1.98
2018-11-23T00:30:32.127Z,1.98
2018-11-23T00:31:46.108Z,1.96
2018-11-23T00:32:56.679Z,1.97
2018-11-23T00:34:04.988Z,1.99
2018-11-23T00:35:13.626Z,2.00
2018-11-23T00:36:22.224Z,2.01
2018-11-23T00:37:29.660Z,1.99
2018-11-23T00:38:36.943Z,1.98
2018-11-23T00:39:43.392Z,1.98
2018-11-23T00:40:50.966Z,1.97
2018-11-23T00:41:58.698Z,1.96
2018-11-23T00:43:06.404Z,1.95
2018-11-23T00:44:17.040Z,1.97
2018-11-23T00:45:29.441Z,1.98
2018-11-23T00:46:40.723Z,1.97
2018-11-23T00:47:46.743Z,1.97
2018-11-23T00:48:53.476Z,1.96
2018-11-23T00:50:04.949Z,1.96
2018-11-23T00:51:15.734Z,1.97
2018-11-23T00:52:28.916Z,1.98
2018-11-23T00:53:42.748Z,1.94
2018-11-23T00:54:54.302Z,1.94
2018-11-23T00:56:03.606Z,1.94
2018-11-23T00:57:11.110Z,1.93
2018-11-23T00:58:22.121Z,1.92
2018-11-23T00:59:34.146Z,1.93
2018-11-23T01:00:42.752Z,1.94
2018-11-23T01:01:51.829Z,1.93
2018-11-23T01:02:59.336Z,1.91
2018-11-23T01:04:10.918Z,1.91
2018-11-23T01:05:18.349Z,1.91
2018-11-23T01:06:26.876Z,1.91
2018-11-23T01:07:36.270Z,1.92
2018-11-23T01:08:44.975Z,1.91
2018-11-23T01:09:51.690Z,1.90
2018-11-23T01:11:00.369Z,1.91
2018-11-23T01:12:07.019Z,1.93
2018-11-23T01:13:14.443Z,1.92
2018-11-23T01:14:23.357Z,1.92
2018-11-23T01:15:30.178Z,1.92
2018-11-23T01:16:39.562Z,1.91
2018-11-23T01:17:47.703Z,1.90
2018-11-23T01:18:59.343Z,1.91
2018-11-23T01:20:09.634Z,1.90
2018-11-23T01:21:21.001Z,1.89
2018-11-23T01:22:27.840Z,1.90
2018-11-23T01:23:34.222Z,1.91
2018-11-23T01:24:42.031Z,1.91
2018-11-23T01:25:50.760Z,1.90
2018-11-23T01:26:58.383Z,1.89
2018-11-23T01:28:11.182Z,1.89
2018-11-23T01:29:19.067Z,1.90
2018-11-23T01:30:30.629Z,1.90
2018-11-23T01:31:38.779Z,1.90
2018-11-23T01:32:47.234Z,1.90
2018-11-23T01:33:57.226Z,1.89
2018-11-23T01:35:03.981Z,1.88
2018-11-23T01:36:11.699Z,1.89
2018-11-23T01:37:19.301Z,1.89
2018-11-23T01:38:28.208Z,1.89
2018-11-23T01:39:35.477Z,1.90
2018-11-23T01:40:42.675Z,1.91
2018-11-23T01:41:52.974Z,1.92
2018-11-23T01:42:59.358Z,1.92
2018-11-23T01:44:07.418Z,1.90
2018-11-23T01:45:17.064Z,1.89
2018-11-23T01:46:24.854Z,1.91
2018-11-23T01:47:32.388Z,1.91
2018-11-23T01:48:40.863Z,1.91
2018-11-23T01:49:49.524Z,1.91
2018-11-23T01:50:58.920Z,1.90
2018-11-23T01:52:08.037Z,1.90
2018-11-23T01:53:15.721Z,1.89
2018-11-23T01:54:22.975Z,1.91
2018-11-23T01:55:35.021Z,1.87
2018-11-23T01:56:46.675Z,1.91
2018-11-23T01:57:54.996Z,1.90
2018-11-23T01:59:06.925Z,1.89
2018-11-23T02:00:14.454Z,1.88
2018-11-23T02:01:23.867Z,1.87
2018-11-23T02:02:31.083Z,1.87
2018-11-23T02:03:38.903Z,1.85
2018-11-23T02:04:51.144Z,1.88
2018-11-23T02:06:00.429Z,1.88
2018-11-23T02:07:10.552Z,1.88
2018-11-23T02:08:20.291Z,1.92
2018-11-23T02:09:27.421Z,1.96
2018-11-23T02:10:34.183Z,2.00
2018-11-23T02:11:43.980Z,2.15
2018-11-23T02:12:56.838Z,2.10
2018-11-23T02:14:08.057Z,2.05
2018-11-23T02:15:17.689Z,2.08
2018-11-23T02:16:26.233Z,1.96
2018-11-23T02:17:33.366Z,1.92
2018-11-23T02:18:42.379Z,1.91
2018-11-23T02:19:52.951Z,1.91
2018-11-23T02:21:01.914Z,1.86
2018-11-23T02:22:09.716Z,1.86
2018-11-23T02:23:18.706Z,1.88
2018-11-23T02:24:25.248Z,1.97
2018-11-23T02:25:33.404Z,2.04
2018-11-23T02:26:42.464Z,2.03
2018-11-23T02:27:54.092Z,2.01
2018-11-23T02:29:02.615Z,1.94
2018-11-23T02:30:12.117Z,1.91
2018-11-23T02:31:18.557Z,1.89
2018-11-23T02:32:26.046Z,1.91
2018-11-23T02:33:33.614Z,1.90
2018-11-23T02:34:41.061Z,1.87
2018-11-23T02:35:48.467Z,1.88
2018-11-23T02:36:57.503Z,1.88
2018-11-23T02:38:06.435Z,1.87
2018-11-23T02:39:15.392Z,1.85
2018-11-23T02:40:22.233Z,1.83
2018-11-23T02:41:29.886Z,1.85
2018-11-23T02:42:39.794Z,1.87
2018-11-23T02:43:47.542Z,1.98
2018-11-23T02:44:56.443Z,2.08
2018-11-23T02:46:05.302Z,2.06
2018-11-23T02:47:18.094Z,1.96
2018-11-23T02:48:28.948Z,1.92
2018-11-23T02:49:38.844Z,1.92
2018-11-23T02:50:46.879Z,1.99
2018-11-23T02:51:55.720Z,2.05
2018-11-23T02:53:03.190Z,1.98
2018-11-23T02:54:14.709Z,1.94
2018-11-23T02:55:23.525Z,1.91
2018-11-23T02:56:34.369Z,1.92
2018-11-23T02:57:41.546Z,1.90
2018-11-23T02:58:49.172Z,1.88
2018-11-23T03:00:02.935Z,1.90
2018-11-23T03:01:13.099Z,1.98
2018-11-23T03:02:22.024Z,2.00
2018-11-23T03:03:29.136Z,1.97
2018-11-23T03:04:38.068Z,1.93
2018-11-23T03:05:47.217Z,1.97
2018-11-23T03:06:55.435Z,1.97
2018-11-23T03:08:02.984Z,1.96
2018-11-23T03:09:11.442Z,1.93
2018-11-23T03:10:19.996Z,1.92
2018-11-23T03:11:27.963Z,1.93
2018-11-23T03:12:38.705Z,1.97
2018-11-23T03:13:46.363Z,1.97
2018-11-23T03:14:55.957Z,1.95
2018-11-23T03:16:05.306Z,1.94
2018-11-23T03:17:14.245Z,1.96
2018-11-23T03:18:29.397Z,1.96
2018-11-23T03:19:38.970Z,1.95
2018-11-23T03:20:51.813Z,1.92
2018-11-23T03:21:58.316Z,1.92
2018-11-23T03:23:10.155Z,1.93
2018-11-23T03:24:21.753Z,1.95
2018-11-23T03:25:29.081Z,1.96
2018-11-23T03:26:38.070Z,1.92
2018-11-23T03:27:51.546Z,1.92
2018-11-23T03:29:00.410Z,1.91
2018-11-23T03:30:07.522Z,1.91
2018-11-23T03:31:17.752Z,1.91
2018-11-23T03:32:27.776Z,1.91
2018-11-23T03:33:35.711Z,1.91
2018-11-23T03:34:43.421Z,1.93
2018-11-23T03:35:53.909Z,1.97
2018-11-23T03:37:03.568Z,2.01
2018-11-23T03:38:12.763Z,1.96
2018-11-23T03:39:20.397Z,1.96
2018-11-23T03:40:28.595Z,1.96
2018-11-23T03:41:37.079Z,1.96
2018-11-23T03:42:47.871Z,1.96
2018-11-23T03:43:57.611Z,1.93
2018-11-23T03:45:10.281Z,1.94
2018-11-23T03:46:20.759Z,1.98
2018-11-23T03:47:28.773Z,1.97
2018-11-23T03:48:36.874Z,1.96
2018-11-23T03:49:48.237Z,1.94
2018-11-23T03:50:57.232Z,1.95
2018-11-23T03:52:04.556Z,1.96
2018-11-23T03:53:11.231Z,1.96
2018-11-23T03:54:17.626Z,1.97
2018-11-23T03:55:24.644Z,1.97
2018-11-23T03:56:34.063Z,1.97
2018-11-23T03:57:44.744Z,1.98
2018-11-23T03:58:54.788Z,1.98
2018-11-23T04:00:07.112Z,1.97
2018-11-23T04:01:15.808Z,1.97
2018-11-23T04:02:24.660Z,1.96
2018-11-23T04:03:33.338Z,1.94
2018-11-23T04:04:40.653Z,1.95
2018-11-23T04:05:49.220Z,1.96
2018-11-23T04:06:56.251Z,1.98
2018-11-23T04:08:08.592Z,1.96
2018-11-23T04:09:15.995Z,1.97
2018-11-23T04:10:22.556Z,1.96
2018-11-23T04:11:30.021Z,1.93
2018-11-23T04:12:40.232Z,1.93
2018-11-23T04:13:49.488Z,1.96
2018-11-23T04:14:57.027Z,1.99
2018-11-23T04:16:07.357Z,1.96
2018-11-23T04:17:16.125Z,1.96
2018-11-23T04:18:26.380Z,1.99
2018-11-23T04:19:34.217Z,2.01
2018-11-23T04:20:41.606Z,2.00
2018-11-23T04:21:49.899Z,2.00
2018-11-23T04:22:58.311Z,2.00
2018-11-23T04:24:04.784Z,1.99
2018-11-23T04:25:13.760Z,1.99
2018-11-23T04:26:24.571Z,1.97
2018-11-23T04:27:27.561Z,1.97
2018-11-23T04:28:35.764Z,1.96
2018-11-23T04:29:49.561Z,1.95
2018-11-23T04:31:02.106Z,1.94
2018-11-23T04:32:09.677Z,1.96
2018-11-23T04:33:19.209Z,1.98
2018-11-23T04:34:32.629Z,2.01
2018-11-23T04:35:45.210Z,2.04
2018-11-23T04:36:56.415Z,2.03
2018-11-23T04:38:04.507Z,2.03
2018-11-23T04:39:13.175Z,1.99
2018-11-23T04:40:21.148Z,1.99
2018-11-23T04:41:29.460Z,1.97
2018-11-23T04:42:44.825Z,2.01
2018-11-23T04:43:58.758Z,2.00
2018-11-23T04:45:09.523Z,1.99
2018-11-23T04:46:20.093Z,1.98
2018-11-23T04:47:30.090Z,1.97
2018-11-23T04:48:40.586Z,1.97
2018-11-23T04:49:50.397Z,1.96
2018-11-23T04:50:58.513Z,1.96
2018-11-23T04:52:10.120Z,1.98
2018-11-23T04:53:25.849Z,2.02
2018-11-23T04:54:33.504Z,1.98
2018-11-23T04:55:41.649Z,1.97
2018-11-23T04:56:51.557Z,1.98
2018-11-23T04:58:01.948Z,1.99
2018-11-23T04:59:11.657Z,2.01
2018-11-23T05:00:22.349Z,2.00
2018-11-23T05:01:32.900Z,2.01
2018-11-23T05:02:39.290Z,2.01
2018-11-23T05:03:49.962Z,2.01
2018-11-23T05:04:56.638Z,2.01
2018-11-23T05:06:05.496Z,2.02
2018-11-23T05:07:13.563Z,2.00
2018-11-23T05:08:21.490Z,2.00
2018-11-23T05:09:29.837Z,2.00
2018-11-23T05:10:37.143Z,2.01
2018-11-23T05:11:47.618Z,2.03
2018-11-23T05:12:55.284Z,2.00
2018-11-23T05:14:07.687Z,1.98
2018-11-23T05:15:17.710Z,1.99
2018-11-23T05:16:25.154Z,1.99
2018-11-23T05:17:32.408Z,2.00
2018-11-23T05:19:00.545Z,1.99
2018-11-23T05:20:08.489Z,1.98
2018-11-23T05:21:15.648Z,1.97
2018-11-23T05:22:22.837Z,1.98
2018-11-23T05:23:29.600Z,1.99
2018-11-23T05:24:37.576Z,2.01
2018-11-23T05:25:45.132Z,2.01
2018-11-23T05:26:52.774Z,2.02
2018-11-23T05:28:00.359Z,2.00
2018-11-23T05:29:08.457Z,1.98
2018-11-23T05:30:15.685Z,1.99
2018-11-23T05:31:22.951Z,1.99
2018-11-23T05:32:29.124Z,1.99
2018-11-23T05:33:35.340Z,2.01
2018-11-23T05:34:41.606Z,2.01
2018-11-23T05:35:47.835Z,2.00
2018-11-23T05:36:54.050Z,2.00
2018-11-23T05:38:00.285Z,2.00
2018-11-23T05:39:05.732Z,1.99
2018-11-23T05:40:12.616Z,1.99
2018-11-23T05:41:19.395Z,1.99
2018-11-23T05:42:25.613Z,2.03
2018-11-23T05:43:31.858Z,2.04
2018-11-23T05:44:38.118Z,2.03
2018-11-23T05:45:44.462Z,2.03
2018-11-23T05:46:50.690Z,2.01
2018-11-23T05:47:57.134Z,2.00
2018-11-23T05:49:03.494Z,1.99
2018-11-23T05:50:09.117Z,2.00
2018-11-23T05:51:15.341Z,2.02
2018-11-23T05:52:21.636Z,2.03
2018-11-23T05:53:27.809Z,2.04
2018-11-23T05:54:34.023Z,2.10
2018-11-23T05:55:40.367Z,2.10
2018-11-23T05:56:46.770Z,2.08
2018-11-23T05:57:53.049Z,2.10
2018-11-23T05:58:59.333Z,2.08
2018-11-23T06:00:04.694Z,2.06
2018-11-23T06:01:11.175Z,2.05
2018-11-23T06:02:17.620Z,2.06
2018-11-23T06:03:23.926Z,2.18
2018-11-23T06:04:30.315Z,2.12
2018-11-23T06:05:36.556Z,2.08
2018-11-23T06:06:42.771Z,2.08
2018-11-23T06:07:49.071Z,2.17
2018-11-23T06:08:55.253Z,2.18
2018-11-23T06:10:01.469Z,2.12
2018-11-23T06:11:07.472Z,2.12
2018-11-23T06:12:13.760Z,2.16
2018-11-23T06:13:19.965Z,2.11
2018-11-23T06:14:26.210Z,2.09
2018-11-23T06:15:32.238Z,2.10
2018-11-23T06:16:38.548Z,2.12
2018-11-23T06:17:44.870Z,2.12
2018-11-23T06:18:51.082Z,2.12
2018-11-23T06:19:57.422Z,2.08
2018-11-23T06:21:03.849Z,2.08
2018-11-23T06:22:10.190Z,2.09
2018-11-23T06:23:16.478Z,2.09
2018-11-23T06:24:22.988Z,2.09
2018-11-23T06:25:29.313Z,2.08
2018-11-23T06:26:35.701Z,2.09
2018-11-23T06:27:42.087Z,2.11
2018-11-23T06:28:48.318Z,2.15
2018-11-23T06:29:54.850Z,2.13
2018-11-23T06:31:01.113Z,2.15
2018-11-23T06:32:06.944Z,2.13
2018-11-23T06:33:18.992Z,2.12
2018-11-23T06:34:25.184Z,2.11
2018-11-23T06:35:31.519Z,2.10
2018-11-23T06:36:37.770Z,2.13
2018-11-23T06:37:44.073Z,2.13
2018-11-23T06:38:50.516Z,2.13
2018-11-23T06:39:56.865Z,2.13
2018-11-23T06:41:10.035Z,2.13
2018-11-23T06:42:09.592Z,2.13
2018-11-23T06:43:16.169Z,2.13
2018-11-23T06:44:22.429Z,2.14
2018-11-23T06:45:28.906Z,2.14
2018-11-23T06:46:35.167Z,2.17
2018-11-23T06:47:41.377Z,2.19
2018-11-23T06:48:47.585Z,2.20
2018-11-23T06:49:54.045Z,2.22
2018-11-23T06:51:00.502Z,2.22
2018-11-23T06:52:06.923Z,2.21
2018-11-23T06:53:13.449Z,2.21
2018-11-23T06:54:19.911Z,2.21
2018-11-23T06:55:26.374Z,2.22
2018-11-23T06:56:33.182Z,2.25
2018-11-23T06:57:39.979Z,2.26
2018-11-23T06:58:46.559Z,2.25
2018-11-23T06:59:52.374Z,2.26
2018-11-23T07:00:58.720Z,2.26
2018-11-23T07:02:04.253Z,2.26
2018-11-23T07:03:10.521Z,2.28
2018-11-23T07:04:18.427Z,2.31
2018-11-23T07:05:24.626Z,2.33
2018-11-23T07:06:30.949Z,2.33
2018-11-23T07:07:37.088Z,2.35
2018-11-23T07:08:43.321Z,2.37
2018-11-23T07:09:49.542Z,2.39
2018-11-23T07:10:55.168Z,2.42
2018-11-23T07:12:01.406Z,2.42
2018-11-23T07:13:07.285Z,2.42
2018-11-23T07:14:13.490Z,2.43
2018-11-23T07:15:19.856Z,2.44
2018-11-23T07:16:26.146Z,2.45
2018-11-23T07:17:32.347Z,2.55
2018-11-23T07:18:38.602Z,2.50
2018-11-23T07:19:44.832Z,2.51
2018-11-23T07:20:51.030Z,2.53
2018-11-23T07:21:57.266Z,2.51
2018-11-23T07:23:03.522Z,2.51
2018-11-23T07:24:09.877Z,2.52
2018-11-23T07:25:16.119Z,2.52
2018-11-23T07:26:22.382Z,2.54
2018-11-23T07:27:28.667Z,2.55
2018-11-23T07:28:34.733Z,2.54
2018-11-23T07:29:41.058Z,2.56
2018-11-23T07:30:48.137Z,2.58
2018-11-23T07:31:54.362Z,2.61
2018-11-23T07:33:00.638Z,2.62
2018-11-23T07:34:06.554Z,2.62
2018-11-23T07:35:12.841Z,2.61
2018-11-23T07:36:18.798Z,2.64
2018-11-23T07:37:25.046Z,2.63
2018-11-23T07:38:31.327Z,2.63
2018-11-23T07:39:48.787Z,2.65
2018-11-23T07:41:05.870Z,2.67
2018-11-23T07:42:11.114Z,2.69
2018-11-23T07:43:17.290Z,2.71
2018-11-23T07:44:23.465Z,2.73
2018-11-23T07:45:29.431Z,2.74
2018-11-23T07:46:35.613Z,2.74
2018-11-23T07:47:41.693Z,2.74
2018-11-23T07:48:47.967Z,2.74
2018-11-23T07:49:53.966Z,2.74
2018-11-23T07:51:00.198Z,2.75
2018-11-23T07:52:05.745Z,2.75
2018-11-23T07:53:12.054Z,2.76
2018-11-23T07:54:18.357Z,2.77
2018-11-23T07:55:24.627Z,2.78
2018-11-23T07:56:30.883Z,2.81
2018-11-23T07:57:37.131Z,2.83
2018-11-23T07:58:43.328Z,2.86
2018-11-23T07:59:49.553Z,2.87
2018-11-23T08:00:55.771Z,2.88
2018-11-23T08:02:02.011Z,2.90
2018-11-23T08:03:08.217Z,2.91
2018-11-23T08:04:14.466Z,2.94
2018-11-23T08:05:20.726Z,2.96
2018-11-23T08:06:26.925Z,2.99
2018-11-23T08:07:33.148Z,3.00
2018-11-23T08:08:39.441Z,3.03
2018-11-23T08:09:45.884Z,3.06
2018-11-23T08:10:51.262Z,3.08
2018-11-23T08:11:57.154Z,3.14
2018-11-23T08:13:03.372Z,3.15
2018-11-23T08:14:09.697Z,3.14
2018-11-23T08:15:15.887Z,3.18
2018-11-23T08:16:22.093Z,3.20
2018-11-23T08:17:28.315Z,3.23
2018-11-23T08:18:34.567Z,3.27
2018-11-23T08:19:47.273Z,3.27
2018-11-23T08:20:47.397Z,3.31
2018-11-23T08:21:53.606Z,3.31
2018-11-23T08:22:59.837Z,3.35
2018-11-23T08:24:06.118Z,3.39
2018-11-23T08:25:11.964Z,3.41
2018-11-23T08:26:18.224Z,3.47
2018-11-23T08:27:24.678Z,3.45
2018-11-23T08:28:31.209Z,3.44
2018-11-23T08:29:37.563Z,3.44
2018-11-23T08:30:43.741Z,3.47
2018-11-23T08:31:50.333Z,3.48
2018-11-23T08:32:56.343Z,3.51
2018-11-23T08:34:02.555Z,3.54
2018-11-23T08:35:08.107Z,3.58
2018-11-23T08:36:14.125Z,3.64
2018-11-23T08:37:20.617Z,3.65
2018-11-23T08:38:26.863Z,3.65
2018-11-23T08:39:33.070Z,3.67
2018-11-23T08:40:39.401Z,3.69
2018-11-23T08:41:45.611Z,3.69
2018-11-23T08:42:51.434Z,3.71
2018-11-23T08:43:57.678Z,3.82
2018-11-23T08:45:03.657Z,3.82
2018-11-23T08:46:09.843Z,3.83
2018-11-23T08:47:16.037Z,3.84
2018-11-23T08:48:22.260Z,3.87
2018-11-23T08:49:28.529Z,3.88
2018-11-23T09:03:47.020Z,4.45
2018-11-23T09:04:54.839Z,4.49
2018-11-23T09:06:02.331Z,4.69
2018-11-23T09:07:09.018Z,4.72
2018-11-23T09:08:16.918Z,4.75
2018-11-23T09:09:26.091Z,4.76
2018-11-23T09:10:34.741Z,4.86
2018-11-23T09:11:42.304Z,5.00
2018-11-23T09:12:50.646Z,5.13
2018-11-23T09:14:04.042Z,5.10
2018-11-23T09:15:12.589Z,5.11
2018-11-23T09:16:23.307Z,5.09
2018-11-23T09:17:31.730Z,5.03
2018-11-23T09:18:41.700Z,5.09
2018-11-23T09:19:51.111Z,5.14
2018-11-23T09:21:00.979Z,5.20
2018-11-23T09:22:12.076Z,5.22
2018-11-23T09:23:21.490Z,5.16
2018-11-23T09:24:31.798Z,5.08
2018-11-23T09:25:41.784Z,5.01
2018-11-23T09:26:49.335Z,5.06
2018-11-23T09:27:59.575Z,5.19
2018-11-23T09:29:11.894Z,5.20
2018-11-23T09:30:21.024Z,5.20
2018-11-23T09:31:31.122Z,5.21
2018-11-23T09:32:41.546Z,5.29
2018-11-23T09:33:53.176Z,5.47
2018-11-23T09:35:03.884Z,5.40
2018-11-23T09:36:13.980Z,5.39
2018-11-23T09:37:22.811Z,5.40
2018-11-23T09:38:31.525Z,5.37
2018-11-23T09:39:39.626Z,5.34
2018-11-23T09:40:50.678Z,5.59
2018-11-23T09:42:00.811Z,5.65
2018-11-23T09:43:10.495Z,5.72
2018-11-23T09:44:24.375Z,5.77
2018-11-23T09:45:34.245Z,5.79
2018-11-23T09:46:44.445Z,5.84
2018-11-23T09:47:53.349Z,5.93
2018-11-23T09:49:02.265Z,6.14
2018-11-23T09:50:15.482Z,6.11
2018-11-23T09:51:25.425Z,6.14
2018-11-23T09:52:32.812Z,6.15
2018-11-23T09:53:41.875Z,6.10
2018-11-23T09:54:51.328Z,6.07
2018-11-23T09:56:02.643Z,6.07
2018-11-23T09:57:12.891Z,6.24
2018-11-23T09:58:26.179Z,6.46
2018-11-23T09:59:36.398Z,6.53
2018-11-23T10:00:44.945Z,6.53
2018-11-23T10:01:54.978Z,6.70
2018-11-23T10:03:07.269Z,6.61
2018-11-23T10:04:16.181Z,6.61
2018-11-23T10:05:26.869Z,6.85
2018-11-23T10:06:37.575Z,6.59
2018-11-23T10:07:46.177Z,6.52
2018-11-23T10:08:59.159Z,6.50
2018-11-23T10:10:07.692Z,6.50
2018-11-23T10:11:15.771Z,6.50
2018-11-23T10:12:25.735Z,6.58
2018-11-23T10:13:35.402Z,6.64
2018-11-23T10:14:43.247Z,6.67
2018-11-23T10:15:53.487Z,6.87
2018-11-23T10:17:03.463Z,6.55
2018-11-23T10:18:13.270Z,6.54
2018-11-23T10:19:22.243Z,6.56
2018-11-23T10:20:34.480Z,6.57
2018-11-23T10:21:43.837Z,6.46
2018-11-23T10:22:54.355Z,6.58
2018-11-23T10:24:04.849Z,6.64
2018-11-23T10:25:11.715Z,6.70
2018-11-23T10:26:21.359Z,6.61
2018-11-23T10:27:33.873Z,6.68
2018-11-23T10:28:46.796Z,6.85
2018-11-23T10:29:58.374Z,6.79
2018-11-23T10:31:06.264Z,6.85
2018-11-23T10:32:15.090Z,6.96
2018-11-23T10:33:28.378Z,7.04
2018-11-23T10:34:35.868Z,7.12
2018-11-23T10:35:45.763Z,7.10
2018-11-23T10:36:59.456Z,7.11
2018-11-23T10:38:14.722Z,7.13
2018-11-23T10:39:24.340Z,6.97
2018-11-23T10:40:33.253Z,7.17
2018-11-23T10:41:41.905Z,7.01
2018-11-23T10:42:50.486Z,7.03
2018-11-23T10:44:00.353Z,7.27
2018-11-23T10:45:07.533Z,7.14
2018-11-23T10:46:17.722Z,6.75
2018-11-23T10:47:24.995Z,6.94
2018-11-23T10:48:35.436Z,6.89
2018-11-23T10:49:46.968Z,7.00
2018-11-23T10:50:55.658Z,6.89
2018-11-23T10:52:05.864Z,6.91
2018-11-23T10:53:13.843Z,7.19
2018-11-23T10:54:22.925Z,7.20
2018-11-23T10:55:39.142Z,7.03
2018-11-23T10:56:48.788Z,6.86
2018-11-23T10:57:57.445Z,6.84
2018-11-23T10:59:04.173Z,6.85
2018-11-23T11:00:11.545Z,7.01
2018-11-23T11:01:18.729Z,6.93
2018-11-23T11:02:29.242Z,6.94
2018-11-23T11:03:40.613Z,6.83
2018-11-23T11:04:48.962Z,6.80
2018-11-23T11:05:55.232Z,6.73
2018-11-23T11:07:02.470Z,6.69
2018-11-23T11:08:11.506Z,6.75
2018-11-23T11:09:18.343Z,6.82
2018-11-23T11:10:26.467Z,6.99
2018-11-23T11:11:34.258Z,6.95
2018-11-23T11:12:43.097Z,6.78
2018-11-23T11:13:52.200Z,6.78
2018-11-23T11:15:02.741Z,6.88
2018-11-23T11:16:12.643Z,7.07
2018-11-23T11:17:20.482Z,7.09
2018-11-23T11:18:29.961Z,7.34
2018-11-23T11:19:38.902Z,7.35
2018-11-23T11:20:49.689Z,7.44
2018-11-23T11:21:59.081Z,7.57
2018-11-23T11:23:09.497Z,7.43
2018-11-23T11:24:19.257Z,7.62
2018-11-23T11:25:29.644Z,7.48
2018-11-23T11:26:38.285Z,7.09
2018-11-23T11:27:51.686Z,7.04
2018-11-23T11:29:03.571Z,7.22
2018-11-23T11:30:14.179Z,7.10
2018-11-23T11:31:23.885Z,6.92
2018-11-23T11:32:33.865Z,6.99
2018-11-23T11:33:44.080Z,7.31
2018-11-23T11:34:53.058Z,7.40
2018-11-23T11:36:03.864Z,7.46
2018-11-23T11:37:17.765Z,7.47
2018-11-23T11:38:26.790Z,7.34
2018-11-23T11:39:36.518Z,7.41
2018-11-23T11:40:46.556Z,7.42
2018-11-23T11:41:54.891Z,7.43
2018-11-23T11:43:03.615Z,7.57
2018-11-23T11:44:12.845Z,7.45
2018-11-23T11:45:23.384Z,7.20
2018-11-23T11:46:35.067Z,7.44
2018-11-23T11:47:41.446Z,7.51
2018-11-23T11:48:53.338Z,7.17
2018-11-23T11:50:01.595Z,7.06
2018-11-23T11:51:12.224Z,7.19
2018-11-23T11:52:19.613Z,7.34
2018-11-23T11:53:27.179Z,7.52
2018-11-23T11:54:35.961Z,7.54
2018-11-23T11:55:45.020Z,7.51
2018-11-23T11:56:56.571Z,7.62
2018-11-23T11:58:02.863Z,7.75
2018-11-23T11:59:11.815Z,7.59
2018-11-23T12:00:24.343Z,7.34
2018-11-23T12:01:31.553Z,7.41
2018-11-23T12:02:38.167Z,7.48
2018-11-23T12:05:30.506Z,7.37
2018-11-23T12:06:36.768Z,7.22
2018-11-23T12:07:42.697Z,7.42
2018-11-23T12:08:48.918Z,7.41
2018-11-23T12:09:55.152Z,7.60
2018-11-23T12:11:01.042Z,7.66
2018-11-23T12:12:07.381Z,7.56
2018-11-23T12:13:13.668Z,7.34
2018-11-23T12:14:19.975Z,7.32
2018-11-23T12:15:26.164Z,7.49
2018-11-23T12:16:33.674Z,7.73
2018-11-23T12:17:39.575Z,7.52
2018-11-23T12:18:46.019Z,7.29
2018-11-23T12:19:52.233Z,7.38
2018-11-23T12:20:58.610Z,7.49
2018-11-23T12:22:04.739Z,7.68
2018-11-23T12:23:10.409Z,7.61
2018-11-23T12:24:16.622Z,7.67
2018-11-23T12:25:22.892Z,7.75
2018-11-23T12:26:29.078Z,7.78
2018-11-23T12:27:36.123Z,8.06
2018-11-23T12:28:43.610Z,8.33
2018-11-23T12:29:51.302Z,8.38
2018-11-23T12:30:58.225Z,8.35
2018-11-23T12:32:07.107Z,8.16
2018-11-23T12:33:13.697Z,7.72
2018-11-23T12:34:19.905Z,7.61
2018-11-23T12:35:26.119Z,7.87
2018-11-23T12:36:32.347Z,7.96
2018-11-23T12:37:38.571Z,8.01
2018-11-23T12:38:44.829Z,8.09
2018-11-23T12:39:51.077Z,8.00
2018-11-23T12:40:57.266Z,7.52
2018-11-23T12:42:03.637Z,7.59
2018-11-23T12:43:09.845Z,7.43
2018-11-23T12:44:16.098Z,7.17
2018-11-23T12:45:21.987Z,7.53
2018-11-23T12:46:28.406Z,7.83
2018-11-23T12:47:34.639Z,8.03
2018-11-23T12:48:41.056Z,8.30
2018-11-23T12:49:47.881Z,8.34
2018-11-23T12:50:54.182Z,8.22
2018-11-23T12:52:00.474Z,8.25
2018-11-23T12:53:06.744Z,8.35
2018-11-23T12:54:12.948Z,8.46
2018-11-23T12:55:19.188Z,8.66
2018-11-23T12:56:25.383Z,8.88
2018-11-23T12:57:32.001Z,8.96
2018-11-23T12:58:38.544Z,8.51
2018-11-23T12:59:45.448Z,8.52
2018-11-23T13:00:51.923Z,8.90
2018-11-23T13:01:58.085Z,8.70
2018-11-23T13:03:05.600Z,8.97
2018-11-23T13:04:13.214Z,9.19
2018-11-23T13:05:20.649Z,9.22
2018-11-23T13:06:29.308Z,8.28
2018-11-23T13:07:36.551Z,7.58
2018-11-23T13:08:44.041Z,7.51
2018-11-23T13:09:51.077Z,7.67
2018-11-23T13:10:58.287Z,7.49
2018-11-23T13:12:05.928Z,7.44
2018-11-23T13:13:13.279Z,7.21
2018-11-23T13:14:20.555Z,7.21
2018-11-23T13:15:29.115Z,7.46
2018-11-23T13:16:36.085Z,7.81
2018-11-23T13:17:43.244Z,8.25
2018-11-23T13:18:51.986Z,8.71
2018-11-23T13:19:59.559Z,9.01
2018-11-23T13:21:09.529Z,9.20
2018-11-23T13:22:16.862Z,8.99
2018-11-23T13:23:24.955Z,9.04
2018-11-23T13:24:32.168Z,8.74
2018-11-23T13:25:39.448Z,8.53
2018-11-23T13:26:47.391Z,8.71
2018-11-23T13:27:55.550Z,8.75
2018-11-23T13:29:15.668Z,8.72
2018-11-23T13:30:10.597Z,8.84
2018-11-23T13:31:16.866Z,9.05
2018-11-23T13:32:23.174Z,8.88
2018-11-23T13:33:29.729Z,8.58
2018-11-23T13:34:37.153Z,8.51
2018-11-23T13:35:44.131Z,8.31
2018-11-23T13:36:51.669Z,7.94
2018-11-23T13:38:00.913Z,7.91
2018-11-23T13:39:07.249Z,7.93
2018-11-23T13:40:14.592Z,7.51
2018-11-23T13:41:21.652Z,7.69
2018-11-23T13:42:29.307Z,7.72
2018-11-23T13:43:36.287Z,7.85
2018-11-23T13:44:43.698Z,8.21
2018-11-23T13:45:51.826Z,8.32
2018-11-23T13:46:59.014Z,8.30
2018-11-23T13:48:07.410Z,7.89
2018-11-23T13:49:14.642Z,7.88
2018-11-23T13:50:22.122Z,7.71
2018-11-23T13:51:28.871Z,7.63
2018-11-23T13:52:35.073Z,7.52
2018-11-23T13:53:41.313Z,7.58
2018-11-23T13:54:47.501Z,7.67
2018-11-23T13:55:53.728Z,7.40
2018-11-23T13:56:59.984Z,7.50
2018-11-23T13:58:06.233Z,7.56
2018-11-23T13:59:12.447Z,7.26
2018-11-23T14:00:17.996Z,7.48
2018-11-23T14:01:24.861Z,7.43
2018-11-23T14:02:31.083Z,7.33
2018-11-23T14:03:37.267Z,7.40
2018-11-23T14:04:43.462Z,7.22
2018-11-23T14:05:49.725Z,7.11
2018-11-23T14:06:55.925Z,7.20
2018-11-23T14:08:02.113Z,7.24
2018-11-23T14:09:07.942Z,7.11
2018-11-23T14:10:13.762Z,7.10
2018-11-23T14:11:20.049Z,7.02
2018-11-23T14:12:26.295Z,6.94
2018-11-23T14:13:32.478Z,7.06
2018-11-23T14:14:38.621Z,7.07
2018-11-23T14:15:44.843Z,6.99
2018-11-23T14:16:51.063Z,6.80
2018-11-23T14:17:57.221Z,6.80
2018-11-23T14:19:03.516Z,6.98
2018-11-23T14:20:09.400Z,6.79
2018-11-23T14:21:15.664Z,6.75
2018-11-23T14:22:22.039Z,6.83
2018-11-23T14:23:28.250Z,6.77
2018-11-23T14:24:34.474Z,6.74
2018-11-23T14:25:40.633Z,6.78
2018-11-23T14:26:46.836Z,6.73
2018-11-23T14:27:52.696Z,6.74
2018-11-23T14:28:58.900Z,6.71
2018-11-23T14:30:04.348Z,6.61
2018-11-23T14:31:10.584Z,6.56
2018-11-23T14:32:16.791Z,6.42
2018-11-23T14:33:23.000Z,6.46
2018-11-23T14:34:29.244Z,6.46
2018-11-23T14:35:35.511Z,6.43
2018-11-23T14:36:41.737Z,6.40
2018-11-23T14:37:47.938Z,6.32
2018-11-23T14:38:54.117Z,6.22
2018-11-23T14:40:00.345Z,6.25
2018-11-23T14:41:06.324Z,6.31
2018-11-23T14:42:12.537Z,6.25
2018-11-23T14:43:18.716Z,6.16
2018-11-23T14:44:24.942Z,6.15
2018-11-23T14:45:31.122Z,6.21
2018-11-23T14:46:37.266Z,6.15
2018-11-23T14:47:43.498Z,6.11
2018-11-23T14:48:49.654Z,6.02
2018-11-23T14:49:55.850Z,5.94
2018-11-23T14:51:01.648Z,5.93
2018-11-23T14:52:07.910Z,5.82
2018-11-23T14:53:14.118Z,5.75
2018-11-23T14:54:20.305Z,5.73
2018-11-23T14:55:26.496Z,5.65
2018-11-23T14:56:32.349Z,5.61
2018-11-23T14:57:38.204Z,5.71
2018-11-23T14:58:44.403Z,5.68
2018-11-23T14:59:50.605Z,5.60
2018-11-23T15:00:56.778Z,5.51
2018-11-23T15:02:03.031Z,5.49
2018-11-23T15:03:08.968Z,5.38
2018-11-23T15:04:15.210Z,5.33
2018-11-23T15:05:21.055Z,5.19
2018-11-23T15:06:27.289Z,5.14
2018-11-23T15:07:33.492Z,5.11
2018-11-23T15:08:39.729Z,5.03
2018-11-23T15:09:45.951Z,4.98
2018-11-23T15:10:52.171Z,4.96
2018-11-23T15:11:58.428Z,4.93
2018-11-23T15:13:03.939Z,4.87
2018-11-23T15:14:10.146Z,4.84
2018-11-23T15:15:15.990Z,4.75
2018-11-23T15:16:22.191Z,4.73
2018-11-23T15:17:28.048Z,4.67
2018-11-23T15:18:34.244Z,4.66
2018-11-23T15:19:40.412Z,4.69
2018-11-23T15:20:46.275Z,4.66